createdAt,value
2019-03-17T00:00:49.254Z,0.00
2019-03-17T00:01:57.161Z,0.00
2019-03-17T00:02:49.254Z,0.00
2019-03-17T00:03:49.263Z,0.00
2019-03-17T00:04:50.171Z,0.00
2019-03-17T00:05:49.153Z,0.00
2019-03-17T00:06:49.149Z,0.00
2019-03-17T00:07:49.188Z,0.00
2019-03-17T00:08:49.114Z,0.00
2019-03-17T00:09:49.107Z,0.00
2019-03-17T00:10:49.023Z,0.00
2019-03-17T00:11:48.998Z,0.00
2019-03-17T00:12:48.977Z,0.00
2019-03-17T00:13:48.954Z,0.00
2019-03-17T00:14:48.928Z,0.00
2019-03-17T00:15:48.909Z,0.00
2019-03-17T00:16:48.897Z,0.00
2019-03-17T00:17:48.858Z,0.00
2019-03-17T00:18:48.834Z,0.00
2019-03-17T00:19:48.812Z,0.00
2019-03-17T00:20:48.790Z,0.00
2019-03-17T00:21:48.770Z,0.00
2019-03-17T00:22:48.742Z,0.00
2019-03-17T00:23:48.728Z,0.00
2019-03-17T00:24:48.700Z,0.00
2019-03-17T00:25:48.673Z,0.00
2019-03-17T00:26:48.662Z,0.00
2019-03-17T00:27:49.147Z,0.00
2019-03-17T00:28:48.605Z,0.00
2019-03-17T00:29:48.613Z,0.00
2019-03-17T00:30:48.558Z,0.00
2019-03-17T00:31:48.535Z,0.00
2019-03-17T00:32:48.513Z,0.00
2019-03-17T00:33:48.695Z,0.00
2019-03-17T00:34:50.801Z,0.00
2019-03-17T00:35:48.443Z,0.00
2019-03-17T00:36:48.418Z,0.00
2019-03-17T00:37:48.394Z,0.00
2019-03-17T00:38:49.202Z,0.00
2019-03-17T00:39:49.042Z,0.00
2019-03-17T00:40:48.335Z,0.00
2019-03-17T00:41:48.307Z,0.00
2019-03-17T00:42:48.280Z,0.00
2019-03-17T00:43:48.306Z,0.00
2019-03-17T00:44:48.259Z,0.00
2019-03-17T00:45:48.269Z,0.00
2019-03-17T00:46:48.224Z,0.00
2019-03-17T00:47:48.224Z,0.00
2019-03-17T00:48:48.182Z,0.00
2019-03-17T00:49:48.172Z,0.00
2019-03-17T00:50:49.111Z,0.00
2019-03-17T00:51:48.072Z,0.00
2019-03-17T00:52:48.144Z,0.00
2019-03-17T00:53:48.080Z,0.00
2019-03-17T00:54:48.059Z,0.00
2019-03-17T00:55:47.998Z,0.00
2019-03-17T00:56:47.956Z,0.00
2019-03-17T00:57:47.966Z,0.00
2019-03-17T00:58:47.911Z,0.00
2019-03-17T00:59:47.945Z,0.00
2019-03-17T01:00:47.865Z,0.00
2019-03-17T01:01:47.841Z,0.00
2019-03-17T01:02:47.873Z,0.00
2019-03-17T01:03:47.796Z,0.00
2019-03-17T01:04:56.081Z,0.00
2019-03-17T01:05:47.751Z,0.00
2019-03-17T01:06:47.730Z,0.00
2019-03-17T01:07:47.706Z,0.00
2019-03-17T01:08:47.701Z,0.00
2019-03-17T01:09:47.701Z,0.00
2019-03-17T01:10:47.689Z,0.00
2019-03-17T01:11:47.647Z,0.00
2019-03-17T01:12:47.654Z,0.00
2019-03-17T01:13:47.588Z,0.00
2019-03-17T01:14:47.564Z,0.00
2019-03-17T01:15:47.523Z,0.00
2019-03-17T01:16:47.509Z,0.00
2019-03-17T01:17:47.471Z,0.00
2019-03-17T01:18:47.452Z,0.00
2019-03-17T01:19:47.488Z,0.00
2019-03-17T01:20:47.495Z,0.00
2019-03-17T01:21:47.387Z,0.00
2019-03-17T01:22:47.411Z,0.00
2019-03-17T01:23:47.377Z,0.00
2019-03-17T01:24:47.311Z,0.00
2019-03-17T01:25:47.358Z,0.00
2019-03-17T01:26:47.264Z,0.00
2019-03-17T01:27:47.240Z,0.00
2019-03-17T01:28:47.255Z,0.00
2019-03-17T01:29:47.195Z,0.00
2019-03-17T01:30:47.241Z,0.00
2019-03-17T01:31:47.154Z,0.00
2019-03-17T01:32:47.125Z,0.00
2019-03-17T01:33:47.106Z,0.00
2019-03-17T01:34:47.859Z,0.00
2019-03-17T01:35:49.701Z,0.00
2019-03-17T01:36:47.093Z,0.00
2019-03-17T01:37:47.012Z,0.00
2019-03-17T01:38:46.992Z,0.00
2019-03-17T01:39:46.969Z,0.00
2019-03-17T01:40:46.941Z,0.00
2019-03-17T01:41:46.916Z,0.00
2019-03-17T01:42:46.954Z,0.00
2019-03-17T01:43:46.875Z,0.00
2019-03-17T01:44:46.848Z,0.00
2019-03-17T01:45:46.820Z,0.00
2019-03-17T01:46:46.800Z,0.00
2019-03-17T01:47:46.824Z,0.00
2019-03-17T01:48:46.791Z,0.00
2019-03-17T01:49:46.729Z,0.00
2019-03-17T01:50:46.708Z,0.00
2019-03-17T01:51:46.682Z,0.00
2019-03-17T01:52:46.659Z,0.00
2019-03-17T01:53:46.638Z,0.00
2019-03-17T01:54:46.620Z,0.00
2019-03-17T01:55:46.591Z,0.00
2019-03-17T01:56:46.563Z,0.00
2019-03-17T01:57:46.542Z,0.00
2019-03-17T01:58:46.528Z,0.00
2019-03-17T01:59:46.498Z,0.00
2019-03-17T02:00:46.474Z,0.00
2019-03-17T02:01:46.449Z,0.00
2019-03-17T02:02:46.424Z,0.00
2019-03-17T02:03:46.405Z,0.00
2019-03-17T02:04:46.385Z,0.00
2019-03-17T02:05:46.356Z,0.00
2019-03-17T02:06:46.338Z,0.00
2019-03-17T02:07:46.309Z,0.00
2019-03-17T02:08:46.285Z,0.00
2019-03-17T02:09:46.264Z,0.00
2019-03-17T02:10:46.292Z,0.00
2019-03-17T02:11:46.219Z,0.00
2019-03-17T02:12:46.190Z,0.00
2019-03-17T02:13:46.170Z,0.00
2019-03-17T02:14:46.143Z,0.00
2019-03-17T02:15:46.128Z,0.00
2019-03-17T02:16:46.100Z,0.00
2019-03-17T02:17:46.075Z,0.00
2019-03-17T02:18:46.054Z,0.00
2019-03-17T02:19:46.027Z,0.00
2019-03-17T02:20:46.008Z,0.00
2019-03-17T02:21:45.983Z,0.00
2019-03-17T02:22:45.967Z,0.00
2019-03-17T02:23:45.934Z,0.00
2019-03-17T02:24:45.913Z,0.00
2019-03-17T02:25:45.895Z,0.00
2019-03-17T02:26:45.866Z,0.00
2019-03-17T02:27:45.841Z,0.00
2019-03-17T02:28:45.851Z,0.00
2019-03-17T02:29:45.793Z,0.00
2019-03-17T02:30:45.821Z,0.00
2019-03-17T02:31:45.753Z,0.00
2019-03-17T02:32:45.728Z,0.00
2019-03-17T02:33:45.713Z,0.00
2019-03-17T02:34:45.681Z,0.00
2019-03-17T02:35:45.678Z,0.00
2019-03-17T02:36:45.641Z,0.00
2019-03-17T02:37:45.644Z,0.00
2019-03-17T02:38:45.594Z,0.00
2019-03-17T02:39:45.564Z,0.00
2019-03-17T02:40:45.545Z,0.00
2019-03-17T02:41:45.521Z,0.00
2019-03-17T02:42:45.495Z,0.00
2019-03-17T02:43:45.473Z,0.00
2019-03-17T02:44:45.448Z,0.00
2019-03-17T02:45:45.425Z,0.00
2019-03-17T02:46:45.400Z,0.00
2019-03-17T02:47:45.383Z,0.00
2019-03-17T02:48:45.355Z,0.00
2019-03-17T02:49:45.336Z,0.00
2019-03-17T02:50:45.309Z,0.00
2019-03-17T02:51:45.291Z,0.00
2019-03-17T02:52:45.260Z,0.00
2019-03-17T02:53:45.242Z,0.00
2019-03-17T02:54:45.215Z,0.00
2019-03-17T02:55:45.191Z,0.00
2019-03-17T02:56:45.167Z,0.00
2019-03-17T02:57:45.170Z,0.00
2019-03-17T02:58:45.122Z,0.00
2019-03-17T02:59:45.100Z,0.00
2019-03-17T03:00:45.081Z,0.00
2019-03-17T03:01:45.051Z,0.00
2019-03-17T03:02:45.035Z,0.00
2019-03-17T03:03:45.009Z,0.00
2019-03-17T03:04:44.980Z,0.00
2019-03-17T03:05:54.945Z,0.00
2019-03-17T03:06:44.938Z,0.00
2019-03-17T03:07:44.918Z,0.00
2019-03-17T03:08:44.888Z,0.00
2019-03-17T03:09:44.869Z,0.00
2019-03-17T03:10:44.846Z,0.00
2019-03-17T03:11:44.821Z,0.00
2019-03-17T03:12:44.793Z,0.00
2019-03-17T03:13:44.774Z,0.00
2019-03-17T03:14:44.749Z,0.00
2019-03-17T03:15:44.730Z,0.00
2019-03-17T03:16:44.703Z,0.00
2019-03-17T03:17:44.684Z,0.00
2019-03-17T03:18:44.655Z,0.00
2019-03-17T03:19:44.639Z,0.00
2019-03-17T03:20:44.608Z,0.00
2019-03-17T03:21:44.586Z,0.00
2019-03-17T03:22:44.567Z,0.00
2019-03-17T03:23:44.555Z,0.00
2019-03-17T03:24:44.592Z,0.00
2019-03-17T03:25:44.490Z,0.00
2019-03-17T03:26:44.466Z,0.00
2019-03-17T03:27:44.449Z,0.00
2019-03-17T03:28:44.419Z,0.00
2019-03-17T03:29:44.400Z,0.00
2019-03-17T03:30:44.375Z,0.00
2019-03-17T03:31:44.449Z,0.00
2019-03-17T03:32:44.329Z,0.00
2019-03-17T03:33:44.303Z,0.00
2019-03-17T03:34:44.288Z,0.00
2019-03-17T03:35:44.284Z,0.00
2019-03-17T03:36:45.171Z,0.00
2019-03-17T03:37:44.214Z,0.00
2019-03-17T03:38:44.243Z,0.00
2019-03-17T03:39:44.166Z,0.00
2019-03-17T03:40:44.138Z,0.00
2019-03-17T03:41:44.117Z,0.00
2019-03-17T03:42:44.094Z,0.00
2019-03-17T03:43:44.070Z,0.00
2019-03-17T03:44:44.060Z,0.00
2019-03-17T03:45:44.028Z,0.00
2019-03-17T03:46:44.017Z,0.00
2019-03-17T03:47:43.975Z,0.00
2019-03-17T03:48:43.965Z,0.00
2019-03-17T03:49:43.959Z,0.00
2019-03-17T03:50:43.914Z,0.00
2019-03-17T03:51:43.882Z,0.00
2019-03-17T03:52:43.859Z,0.00
2019-03-17T03:53:43.841Z,0.00
2019-03-17T03:54:43.814Z,0.00
2019-03-17T03:55:43.789Z,0.00
2019-03-17T03:56:43.771Z,0.00
2019-03-17T03:57:43.744Z,0.00
2019-03-17T03:58:43.721Z,0.00
2019-03-17T03:59:43.697Z,0.00
2019-03-17T04:00:43.684Z,0.00
2019-03-17T04:01:43.646Z,0.00
2019-03-17T04:02:43.630Z,0.00
2019-03-17T04:03:43.607Z,0.00
2019-03-17T04:04:43.577Z,0.00
2019-03-17T04:05:43.549Z,0.00
2019-03-17T04:06:43.530Z,0.00
2019-03-17T04:07:43.537Z,0.00
2019-03-17T04:08:43.489Z,0.00
2019-03-17T04:09:43.463Z,0.00
2019-03-17T04:10:43.434Z,0.00
2019-03-17T04:11:43.414Z,0.00
2019-03-17T04:12:43.392Z,0.00
2019-03-17T04:13:43.365Z,0.00
2019-03-17T04:14:43.341Z,0.00
2019-03-17T04:15:43.317Z,0.00
2019-03-17T04:16:43.298Z,0.00
2019-03-17T04:17:43.276Z,0.00
2019-03-17T04:18:43.247Z,0.00
2019-03-17T04:19:43.221Z,0.00
2019-03-17T04:20:43.204Z,0.00
2019-03-17T04:21:43.195Z,0.00
2019-03-17T04:22:43.171Z,0.00
2019-03-17T04:23:43.127Z,0.00
2019-03-17T04:24:43.107Z,0.00
2019-03-17T04:25:43.089Z,0.00
2019-03-17T04:26:43.059Z,0.00
2019-03-17T04:27:43.035Z,0.00
2019-03-17T04:28:43.010Z,0.00
2019-03-17T04:29:42.993Z,0.00
2019-03-17T04:30:42.966Z,0.00
2019-03-17T04:31:42.945Z,0.00
2019-03-17T04:32:42.915Z,0.00
2019-03-17T04:33:42.891Z,0.00
2019-03-17T04:34:42.869Z,0.00
2019-03-17T04:35:45.703Z,0.00
2019-03-17T04:36:42.824Z,0.00
2019-03-17T04:37:43.539Z,0.00
2019-03-17T04:38:43.965Z,0.00
2019-03-17T04:39:42.753Z,0.00
2019-03-17T04:40:42.727Z,0.00
2019-03-17T04:41:42.707Z,0.00
2019-03-17T04:42:42.683Z,0.00
2019-03-17T04:43:42.654Z,0.00
2019-03-17T04:44:42.643Z,0.00
2019-03-17T04:45:42.610Z,0.00
2019-03-17T04:46:42.583Z,0.00
2019-03-17T04:47:42.568Z,0.00
2019-03-17T04:48:42.574Z,0.00
2019-03-17T04:49:42.513Z,0.00
2019-03-17T04:50:42.488Z,0.00
2019-03-17T04:51:42.468Z,0.00
2019-03-17T04:52:42.441Z,0.00
2019-03-17T04:53:42.423Z,0.00
2019-03-17T04:54:42.404Z,0.00
2019-03-17T04:55:42.374Z,0.00
2019-03-17T04:56:42.345Z,0.00
2019-03-17T04:57:42.331Z,0.00
2019-03-17T04:58:42.299Z,0.00
2019-03-17T04:59:42.276Z,0.00
2019-03-17T05:00:42.272Z,0.00
2019-03-17T05:01:42.229Z,0.00
2019-03-17T05:02:42.218Z,0.00
2019-03-17T05:03:42.179Z,0.00
2019-03-17T05:04:42.159Z,0.00
2019-03-17T05:05:42.134Z,0.00
2019-03-17T05:06:52.031Z,0.00
2019-03-17T05:07:42.086Z,0.00
2019-03-17T05:08:42.058Z,0.00
2019-03-17T05:09:42.032Z,0.00
2019-03-17T05:10:42.012Z,0.00
2019-03-17T05:11:41.987Z,0.00
2019-03-17T05:12:41.964Z,0.00
2019-03-17T05:13:41.937Z,0.00
2019-03-17T05:14:41.917Z,0.00
2019-03-17T05:15:41.893Z,0.00
2019-03-17T05:16:41.865Z,0.00
2019-03-17T05:17:41.839Z,0.00
2019-03-17T05:18:41.819Z,0.00
2019-03-17T05:19:41.792Z,0.00
2019-03-17T05:20:41.770Z,0.00
2019-03-17T05:21:41.742Z,0.00
2019-03-17T05:22:41.723Z,0.00
2019-03-17T05:23:41.703Z,0.00
2019-03-17T05:24:41.673Z,0.00
2019-03-17T05:25:41.647Z,0.00
2019-03-17T05:26:41.623Z,0.00
2019-03-17T05:27:41.601Z,0.00
2019-03-17T05:28:41.578Z,0.00
2019-03-17T05:29:41.550Z,0.00
2019-03-17T05:30:41.527Z,0.00
2019-03-17T05:31:41.501Z,0.00
2019-03-17T05:32:41.481Z,0.00
2019-03-17T05:33:41.455Z,0.00
2019-03-17T05:34:41.431Z,0.00
2019-03-17T05:35:41.403Z,0.00
2019-03-17T05:36:41.380Z,0.00
2019-03-17T05:37:41.359Z,0.00
2019-03-17T05:38:41.929Z,0.00
2019-03-17T05:39:41.310Z,0.00
2019-03-17T05:40:41.287Z,0.00
2019-03-17T05:41:41.260Z,0.00
2019-03-17T05:42:41.331Z,0.00
2019-03-17T05:43:41.223Z,0.00
2019-03-17T05:44:41.194Z,0.00
2019-03-17T05:45:41.160Z,0.00
2019-03-17T05:46:41.137Z,0.00
2019-03-17T05:47:41.118Z,0.00
2019-03-17T05:48:41.091Z,0.00
2019-03-17T05:49:41.063Z,0.00
2019-03-17T05:50:41.038Z,0.00
2019-03-17T05:51:41.017Z,0.00
2019-03-17T05:52:40.988Z,0.00
2019-03-17T05:53:40.965Z,0.00
2019-03-17T05:54:40.941Z,0.00
2019-03-17T05:55:40.935Z,0.00
2019-03-17T05:56:40.905Z,0.00
2019-03-17T05:57:40.871Z,0.00
2019-03-17T05:58:40.858Z,0.00
2019-03-17T05:59:40.822Z,0.00
2019-03-17T06:00:40.799Z,0.00
2019-03-17T06:01:40.772Z,0.00
2019-03-17T06:02:40.745Z,0.00
2019-03-17T06:03:40.720Z,0.00
2019-03-17T06:04:40.699Z,0.00
2019-03-17T06:05:40.670Z,0.00
2019-03-17T06:06:40.655Z,0.00
2019-03-17T06:07:40.625Z,0.00
2019-03-17T06:08:43.246Z,0.00
2019-03-17T06:09:40.574Z,0.00
2019-03-17T06:10:40.548Z,0.00
2019-03-17T06:11:40.524Z,0.00
2019-03-17T06:12:40.505Z,0.00
2019-03-17T06:13:40.482Z,0.00
2019-03-17T06:14:40.452Z,0.00
2019-03-17T06:15:40.425Z,0.00
2019-03-17T06:16:40.399Z,0.00
2019-03-17T06:17:40.381Z,0.00
2019-03-17T06:18:40.350Z,0.00
2019-03-17T06:19:40.326Z,0.00
2019-03-17T06:20:40.304Z,0.00
2019-03-17T06:21:40.278Z,0.00
2019-03-17T06:22:40.253Z,0.00
2019-03-17T06:23:40.241Z,5.63
2019-03-17T06:24:40.201Z,0.00
2019-03-17T06:25:40.177Z,0.00
2019-03-17T06:26:40.202Z,0.00
2019-03-17T06:27:40.131Z,5.63
2019-03-17T06:28:40.105Z,5.63
2019-03-17T06:29:40.079Z,5.63
2019-03-17T06:30:40.061Z,5.63
2019-03-17T06:31:40.030Z,5.63
2019-03-17T06:32:40.005Z,5.63
2019-03-17T06:33:39.981Z,5.63
2019-03-17T06:34:39.957Z,5.63
2019-03-17T06:35:40.031Z,11.25
2019-03-17T06:36:42.738Z,11.25
2019-03-17T06:37:39.881Z,11.25
2019-03-17T06:38:40.861Z,11.25
2019-03-17T06:39:40.228Z,11.25
2019-03-17T06:40:39.803Z,11.25
2019-03-17T06:41:39.780Z,5.63
2019-03-17T06:42:39.756Z,5.63
2019-03-17T06:43:39.731Z,11.25
2019-03-17T06:44:39.707Z,5.63
2019-03-17T06:45:39.681Z,5.63
2019-03-17T06:46:39.663Z,11.25
2019-03-17T06:47:39.631Z,5.63
2019-03-17T06:48:39.606Z,5.63
2019-03-17T06:49:39.585Z,5.63
2019-03-17T06:50:39.557Z,5.63
2019-03-17T06:51:39.532Z,5.63
2019-03-17T06:52:39.506Z,5.63
2019-03-17T06:53:39.522Z,11.25
2019-03-17T06:54:39.461Z,11.25
2019-03-17T06:55:39.434Z,11.25
2019-03-17T06:56:39.417Z,11.25
2019-03-17T06:57:39.381Z,11.25
2019-03-17T06:58:39.360Z,11.25
2019-03-17T06:59:39.342Z,16.88
2019-03-17T07:00:39.310Z,16.88
2019-03-17T07:01:39.286Z,11.25
2019-03-17T07:02:39.257Z,16.88
2019-03-17T07:03:39.233Z,11.25
2019-03-17T07:04:39.210Z,16.88
2019-03-17T07:05:39.183Z,11.25
2019-03-17T07:06:39.163Z,11.25
2019-03-17T07:07:44.237Z,16.88
2019-03-17T07:08:39.108Z,16.88
2019-03-17T07:09:39.115Z,11.25
2019-03-17T07:10:39.059Z,16.88
2019-03-17T07:11:39.034Z,11.25
2019-03-17T07:12:39.010Z,11.25
2019-03-17T07:13:38.991Z,16.88
2019-03-17T07:14:38.961Z,22.50
2019-03-17T07:15:38.941Z,22.50
2019-03-17T07:16:38.908Z,22.50
2019-03-17T07:17:38.893Z,22.50
2019-03-17T07:18:38.865Z,16.88
2019-03-17T07:19:38.842Z,16.88
2019-03-17T07:20:38.815Z,11.25
2019-03-17T07:21:38.783Z,16.88
2019-03-17T07:22:38.759Z,16.88
2019-03-17T07:23:38.735Z,11.25
2019-03-17T07:24:38.723Z,16.88
2019-03-17T07:25:38.682Z,5.63
2019-03-17T07:26:38.660Z,5.63
2019-03-17T07:27:38.637Z,11.25
2019-03-17T07:28:38.606Z,11.25
2019-03-17T07:29:38.599Z,11.25
2019-03-17T07:30:38.560Z,16.88
2019-03-17T07:31:38.542Z,22.50
2019-03-17T07:32:38.508Z,22.50
2019-03-17T07:33:38.485Z,22.50
2019-03-17T07:34:38.462Z,22.50
2019-03-17T07:35:38.433Z,16.88
2019-03-17T07:36:38.408Z,16.88
2019-03-17T07:37:38.410Z,16.88
2019-03-17T07:38:38.358Z,16.88
2019-03-17T07:39:38.332Z,11.25
2019-03-17T07:40:38.307Z,11.25
2019-03-17T07:41:38.288Z,11.25
2019-03-17T07:42:38.259Z,11.25
2019-03-17T07:43:38.233Z,16.88
2019-03-17T07:44:38.211Z,16.88
2019-03-17T07:45:38.184Z,16.88
2019-03-17T07:46:38.161Z,22.50
2019-03-17T07:47:38.164Z,28.13
2019-03-17T07:48:38.114Z,28.13
2019-03-17T07:49:38.086Z,28.13
2019-03-17T07:50:38.062Z,33.75
2019-03-17T07:51:38.038Z,33.75
2019-03-17T07:52:38.012Z,33.75
2019-03-17T07:53:37.984Z,39.38
2019-03-17T07:54:37.967Z,39.38
2019-03-17T07:55:37.936Z,39.38
2019-03-17T07:56:37.916Z,39.38
2019-03-17T07:57:37.888Z,39.38
2019-03-17T07:58:37.858Z,45.00
2019-03-17T07:59:37.841Z,45.00
2019-03-17T08:00:37.810Z,45.00
2019-03-17T08:01:37.788Z,50.63
2019-03-17T08:02:37.761Z,50.63
2019-03-17T08:03:37.739Z,50.63
2019-03-17T08:04:42.416Z,56.25
2019-03-17T08:05:37.691Z,56.25
2019-03-17T08:06:37.662Z,56.25
2019-03-17T08:07:37.638Z,56.25
2019-03-17T08:08:37.716Z,56.25
2019-03-17T08:09:37.588Z,61.88
2019-03-17T08:10:37.562Z,61.88
2019-03-17T08:11:37.541Z,61.88
2019-03-17T08:12:37.530Z,67.50
2019-03-17T08:13:37.486Z,73.13
2019-03-17T08:14:37.460Z,78.75
2019-03-17T08:15:37.445Z,78.75
2019-03-17T08:16:37.415Z,78.75
2019-03-17T08:17:37.393Z,78.75
2019-03-17T08:18:37.360Z,67.50
2019-03-17T08:19:37.339Z,67.50
2019-03-17T08:20:37.318Z,61.88
2019-03-17T08:21:37.286Z,56.25
2019-03-17T08:22:37.267Z,56.25
2019-03-17T08:23:37.262Z,56.25
2019-03-17T08:24:37.214Z,50.63
2019-03-17T08:25:37.201Z,50.63
2019-03-17T08:26:37.232Z,50.63
2019-03-17T08:27:37.172Z,50.63
2019-03-17T08:28:37.113Z,56.25
2019-03-17T08:29:37.133Z,56.25
2019-03-17T08:30:37.063Z,61.88
2019-03-17T08:31:37.036Z,61.88
2019-03-17T08:32:37.024Z,67.50
2019-03-17T08:33:36.985Z,61.88
2019-03-17T08:34:37.023Z,67.50
2019-03-17T08:35:36.941Z,67.50
2019-03-17T08:36:37.848Z,67.50
2019-03-17T08:37:36.963Z,73.13
2019-03-17T08:38:36.908Z,73.13
2019-03-17T08:39:36.857Z,84.38
2019-03-17T08:40:36.855Z,112.50
2019-03-17T08:41:37.780Z,135.00
2019-03-17T08:42:36.764Z,123.75
2019-03-17T08:43:36.750Z,118.13
2019-03-17T08:44:36.710Z,118.13
2019-03-17T08:45:36.686Z,118.13
2019-03-17T08:46:36.665Z,118.13
2019-03-17T08:47:36.639Z,118.13
2019-03-17T08:48:36.613Z,101.25
2019-03-17T08:49:36.585Z,101.25
2019-03-17T08:50:36.561Z,106.88
2019-03-17T08:51:36.751Z,118.13
2019-03-17T08:52:36.545Z,135.00
2019-03-17T08:53:36.497Z,135.00
2019-03-17T08:54:36.461Z,135.00
2019-03-17T08:55:36.458Z,123.75
2019-03-17T08:56:36.430Z,112.50
2019-03-17T08:57:36.432Z,101.25
2019-03-17T08:58:36.365Z,90.00
2019-03-17T08:59:36.456Z,90.00
2019-03-17T09:00:36.326Z,90.00
2019-03-17T09:01:36.292Z,90.00
2019-03-17T09:02:37.231Z,95.63
2019-03-17T09:03:36.239Z,95.63
2019-03-17T09:04:36.215Z,90.00
2019-03-17T09:05:36.226Z,90.00
2019-03-17T09:06:36.164Z,90.00
2019-03-17T09:07:36.138Z,84.38
2019-03-17T09:08:36.123Z,73.13
2019-03-17T09:09:36.125Z,73.13
2019-03-17T09:10:37.772Z,73.13
2019-03-17T09:11:36.053Z,67.50
2019-03-17T09:12:36.058Z,73.13
2019-03-17T09:13:35.987Z,78.75
2019-03-17T09:14:36.003Z,90.00
2019-03-17T09:15:35.940Z,101.25
2019-03-17T09:16:35.924Z,106.88
2019-03-17T09:17:35.897Z,106.88
2019-03-17T09:18:35.866Z,95.63
2019-03-17T09:19:35.844Z,84.38
2019-03-17T09:20:35.846Z,84.38
2019-03-17T09:21:35.810Z,78.75
2019-03-17T09:22:35.770Z,78.75
2019-03-17T09:23:36.329Z,78.75
2019-03-17T09:24:35.712Z,78.75
2019-03-17T09:25:35.714Z,84.38
2019-03-17T09:26:35.662Z,90.00
2019-03-17T09:27:35.652Z,90.00
2019-03-17T09:28:35.611Z,95.63
2019-03-17T09:29:36.420Z,84.38
2019-03-17T09:30:35.560Z,84.38
2019-03-17T09:31:35.537Z,78.75
2019-03-17T09:32:35.513Z,78.75
2019-03-17T09:33:35.486Z,78.75
2019-03-17T09:34:35.473Z,84.38
2019-03-17T09:35:35.596Z,84.38
2019-03-17T09:36:35.413Z,84.38
2019-03-17T09:37:35.445Z,90.00
2019-03-17T09:38:46.805Z,101.25
2019-03-17T09:39:35.345Z,101.25
2019-03-17T09:40:35.344Z,112.50
2019-03-17T09:41:35.297Z,112.50
2019-03-17T09:42:35.268Z,118.13
2019-03-17T09:43:35.241Z,101.25
2019-03-17T09:44:35.404Z,95.63
2019-03-17T09:45:35.187Z,84.38
2019-03-17T09:46:35.162Z,101.25
2019-03-17T09:47:35.139Z,112.50
2019-03-17T09:48:35.120Z,135.00
2019-03-17T09:49:35.117Z,146.25
2019-03-17T09:50:35.068Z,151.88
2019-03-17T09:51:35.045Z,135.00
2019-03-17T09:52:35.016Z,135.00
2019-03-17T09:53:35.015Z,84.38
2019-03-17T09:54:34.964Z,123.75
2019-03-17T09:55:34.948Z,112.50
2019-03-17T09:56:34.916Z,112.50
2019-03-17T09:57:34.892Z,135.00
2019-03-17T09:58:34.871Z,140.63
2019-03-17T09:59:34.841Z,140.63
2019-03-17T10:00:34.819Z,140.63
2019-03-17T10:01:34.790Z,135.00
2019-03-17T10:02:34.768Z,118.13
2019-03-17T10:03:34.744Z,106.88
2019-03-17T10:04:34.716Z,118.13
2019-03-17T10:05:34.692Z,140.63
2019-03-17T10:06:34.664Z,151.88
2019-03-17T10:07:34.646Z,163.13
2019-03-17T10:08:34.618Z,146.25
2019-03-17T10:09:34.614Z,140.63
2019-03-17T10:10:34.565Z,163.13
2019-03-17T10:11:34.556Z,135.00
2019-03-17T10:12:34.517Z,157.50
2019-03-17T10:13:34.492Z,123.75
2019-03-17T10:14:34.469Z,135.00
2019-03-17T10:15:34.451Z,106.88
2019-03-17T10:16:34.419Z,140.63
2019-03-17T10:17:34.396Z,146.25
2019-03-17T10:18:34.379Z,180.00
2019-03-17T10:19:34.344Z,106.88
2019-03-17T10:20:34.330Z,118.13
2019-03-17T10:21:34.356Z,67.50
2019-03-17T10:22:34.303Z,56.25
2019-03-17T10:23:34.264Z,67.50
2019-03-17T10:24:34.222Z,67.50
2019-03-17T10:25:34.195Z,56.25
2019-03-17T10:26:34.177Z,50.63
2019-03-17T10:27:34.149Z,61.88
2019-03-17T10:28:35.287Z,67.50
2019-03-17T10:29:34.199Z,84.38
2019-03-17T10:30:34.078Z,106.88
2019-03-17T10:31:34.061Z,90.00
2019-03-17T10:32:34.023Z,78.75
2019-03-17T10:33:33.997Z,73.13
2019-03-17T10:34:33.973Z,73.13
2019-03-17T10:35:33.951Z,67.50
2019-03-17T10:36:33.933Z,50.63
2019-03-17T10:37:33.899Z,50.63
2019-03-17T10:38:33.874Z,67.50
2019-03-17T10:39:33.863Z,73.13
2019-03-17T10:40:33.833Z,95.63
2019-03-17T10:41:33.802Z,112.50
2019-03-17T10:42:34.293Z,151.88
2019-03-17T10:43:33.758Z,219.38
2019-03-17T10:44:33.732Z,219.38
2019-03-17T10:45:33.696Z,393.75
2019-03-17T10:46:33.674Z,264.38
2019-03-17T10:47:33.656Z,213.75
2019-03-17T10:48:33.622Z,151.88
2019-03-17T10:49:33.595Z,168.75
2019-03-17T10:50:33.570Z,168.75
2019-03-17T10:51:33.547Z,630.00
2019-03-17T10:52:33.519Z,495.00
2019-03-17T10:53:33.990Z,399.38
2019-03-17T10:54:33.472Z,669.38
2019-03-17T10:55:33.452Z,264.38
2019-03-17T10:56:33.661Z,978.75
2019-03-17T10:57:33.395Z,495.00
2019-03-17T10:58:33.371Z,196.88
2019-03-17T10:59:33.352Z,213.75
2019-03-17T11:00:33.336Z,258.75
2019-03-17T11:01:33.297Z,1068.75
2019-03-17T11:02:33.275Z,888.75
2019-03-17T11:03:33.251Z,1063.13
2019-03-17T11:04:33.226Z,1203.75
2019-03-17T11:05:33.243Z,675.00
2019-03-17T11:06:33.826Z,714.38
2019-03-17T11:07:33.167Z,236.25
2019-03-17T11:08:33.134Z,202.50
2019-03-17T11:09:33.110Z,810.00
2019-03-17T11:10:33.085Z,646.88
2019-03-17T11:11:33.065Z,826.88
2019-03-17T11:12:33.043Z,821.25
2019-03-17T11:13:33.034Z,528.75
2019-03-17T11:14:33.098Z,573.75
2019-03-17T11:15:32.978Z,528.75
2019-03-17T11:16:32.950Z,978.75
2019-03-17T11:17:32.930Z,736.88
2019-03-17T11:18:32.907Z,826.88
2019-03-17T11:19:32.883Z,1164.38
2019-03-17T11:20:32.863Z,1395.00
2019-03-17T11:21:32.843Z,1186.88
2019-03-17T11:22:32.815Z,337.50
2019-03-17T11:23:32.798Z,399.38
2019-03-17T11:24:32.777Z,337.50
2019-03-17T11:25:32.765Z,196.88
2019-03-17T11:26:32.736Z,613.13
2019-03-17T11:27:32.724Z,348.75
2019-03-17T11:28:32.720Z,354.38
2019-03-17T11:29:32.673Z,241.88
2019-03-17T11:30:32.663Z,118.13
2019-03-17T11:31:32.635Z,73.13
2019-03-17T11:32:32.614Z,61.88
2019-03-17T11:33:32.592Z,56.25
2019-03-17T11:34:32.571Z,78.75
2019-03-17T11:35:32.551Z,95.63
2019-03-17T11:36:32.528Z,95.63
2019-03-17T11:37:32.507Z,67.50
2019-03-17T11:38:32.482Z,73.13
2019-03-17T11:39:37.766Z,106.88
2019-03-17T11:40:32.439Z,95.63
2019-03-17T11:41:32.432Z,118.13
2019-03-17T11:42:32.406Z,112.50
2019-03-17T11:43:32.459Z,135.00
2019-03-17T11:44:32.351Z,163.13
2019-03-17T11:45:32.332Z,157.50
2019-03-17T11:46:32.305Z,253.13
2019-03-17T11:47:32.283Z,118.13
2019-03-17T11:48:32.269Z,95.63
2019-03-17T11:49:32.240Z,101.25
2019-03-17T11:50:32.223Z,78.75
2019-03-17T11:51:32.198Z,73.13
2019-03-17T11:52:32.170Z,78.75
2019-03-17T11:53:32.145Z,95.63
2019-03-17T11:54:32.125Z,84.38
2019-03-17T11:55:32.149Z,90.00
2019-03-17T11:56:32.076Z,90.00
2019-03-17T11:57:32.056Z,84.38
2019-03-17T11:58:32.036Z,129.38
2019-03-17T11:59:32.002Z,118.13
2019-03-17T12:00:31.983Z,146.25
2019-03-17T12:01:31.958Z,140.63
2019-03-17T12:02:31.934Z,101.25
2019-03-17T12:03:31.932Z,112.50
2019-03-17T12:04:31.896Z,123.75
2019-03-17T12:05:31.890Z,196.88
2019-03-17T12:06:31.844Z,135.00
2019-03-17T12:07:31.823Z,135.00
2019-03-17T12:08:31.825Z,151.88
2019-03-17T12:09:31.774Z,208.13
2019-03-17T12:10:31.771Z,174.38
2019-03-17T12:11:33.333Z,168.75
2019-03-17T12:12:31.704Z,180.00
2019-03-17T12:13:31.681Z,157.50
2019-03-17T12:14:31.655Z,376.88
2019-03-17T12:15:31.635Z,371.25
2019-03-17T12:16:31.612Z,180.00
2019-03-17T12:17:32.343Z,281.25
2019-03-17T12:18:31.564Z,371.25
2019-03-17T12:19:32.843Z,196.88
2019-03-17T12:20:31.523Z,309.38
2019-03-17T12:21:31.499Z,281.25
2019-03-17T12:22:31.478Z,450.00
2019-03-17T12:23:31.452Z,489.38
2019-03-17T12:24:31.452Z,303.75
2019-03-17T12:25:31.409Z,292.50
2019-03-17T12:26:31.387Z,281.25
2019-03-17T12:27:31.359Z,303.75
2019-03-17T12:28:31.341Z,292.50
2019-03-17T12:29:31.317Z,157.50
2019-03-17T12:30:31.298Z,292.50
2019-03-17T12:31:31.272Z,275.63
2019-03-17T12:32:31.251Z,185.63
2019-03-17T12:33:31.227Z,331.88
2019-03-17T12:34:31.211Z,326.25
2019-03-17T12:35:31.199Z,315.00
2019-03-17T12:36:31.159Z,343.13
2019-03-17T12:37:31.148Z,382.50
2019-03-17T12:38:31.320Z,399.38
2019-03-17T12:39:31.139Z,399.38
2019-03-17T12:40:31.070Z,343.13
2019-03-17T12:41:31.051Z,331.88
2019-03-17T12:42:31.032Z,331.88
2019-03-17T12:43:31.009Z,444.38
2019-03-17T12:44:30.987Z,292.50
2019-03-17T12:45:30.961Z,157.50
2019-03-17T12:46:30.941Z,225.00
2019-03-17T12:47:30.919Z,376.88
2019-03-17T12:48:30.955Z,337.50
2019-03-17T12:49:31.274Z,410.63
2019-03-17T12:50:30.859Z,472.50
2019-03-17T12:51:30.834Z,225.00
2019-03-17T12:52:30.813Z,180.00
2019-03-17T12:53:30.791Z,286.88
2019-03-17T12:54:30.769Z,348.75
2019-03-17T12:55:30.750Z,236.25
2019-03-17T12:56:30.727Z,388.13
2019-03-17T12:57:30.714Z,433.13
2019-03-17T12:58:30.685Z,421.88
2019-03-17T12:59:30.667Z,416.25